createdAt,value
2023-01-27T06:57:14.310Z,0.61
2023-01-27T06:58:17.397Z,0.50
2023-01-27T06:59:20.693Z,0.60
2023-01-27T07:00:23.582Z,0.59
2023-01-27T07:01:26.339Z,0.48
2023-01-27T07:02:32.190Z,0.56
2023-01-27T07:03:37.430Z,0.53
2023-01-27T07:04:43.388Z,0.65
2023-01-27T07:05:48.628Z,0.56
2023-01-27T07:06:50.962Z,0.47
2023-01-27T07:07:56.139Z,0.47
2023-01-27T07:08:59.549Z,0.52
2023-01-27T07:10:02.833Z,0.60
2023-01-27T07:11:06.235Z,0.61
2023-01-27T07:12:09.542Z,0.59
2023-01-27T07:13:12.844Z,0.69
2023-01-27T07:14:16.344Z,0.74
2023-01-27T07:15:21.821Z,0.81
2023-01-27T07:16:25.606Z,0.82
2023-01-27T07:17:29.161Z,0.88
2023-01-27T07:18:35.373Z,0.72
2023-01-27T07:19:38.675Z,0.55
2023-01-27T07:20:42.394Z,0.49
2023-01-27T07:21:45.984Z,0.58
2023-01-27T07:22:52.231Z,0.65
2023-01-27T07:23:58.811Z,0.53
2023-01-27T07:25:02.157Z,0.41
2023-01-27T07:26:12.506Z,0.34
2023-01-27T07:27:10.361Z,0.22
2023-01-27T11:05:46.598Z,0.63
2023-01-27T11:06:52.415Z,0.60
2023-01-27T11:07:59.350Z,0.63
2023-01-27T11:09:04.511Z,0.64
2023-01-27T11:10:20.249Z,0.61
2023-01-27T11:11:44.023Z,0.65
2023-01-27T11:12:49.191Z,0.84
2023-01-27T11:13:56.012Z,1.00
2023-01-27T11:15:01.418Z,1.04
2023-01-27T11:16:07.129Z,0.62
2023-01-27T11:17:29.949Z,0.46
2023-01-27T11:18:36.302Z,0.23
2023-01-27T11:19:53.127Z,0.53
2023-01-27T11:20:58.537Z,0.65
2023-01-27T11:22:09.024Z,0.68
2023-01-27T11:24:48.512Z,0.76
2023-01-27T11:25:58.307Z,0.98
2023-01-27T11:27:11.523Z,0.76
2023-01-27T11:28:20.874Z,0.77
2023-01-27T11:29:31.920Z,0.79
2023-01-27T11:30:43.613Z,0.79
2023-01-27T11:31:56.626Z,0.79
2023-01-27T11:33:04.812Z,0.90
2023-01-27T11:34:10.260Z,1.10
2023-01-27T11:35:15.668Z,1.23
2023-01-27T11:36:20.196Z,1.17
2023-01-27T11:37:25.605Z,1.25
2023-01-27T11:38:28.790Z,1.07
2023-01-27T11:39:33.851Z,0.90
2023-01-27T11:40:41.659Z,0.92
2023-01-27T11:41:46.691Z,1.07
2023-01-27T11:42:52.017Z,1.09
2023-01-27T11:43:55.686Z,1.18
2023-01-27T11:45:05.648Z,1.11
2023-01-27T11:46:10.835Z,1.22
2023-01-27T11:47:19.544Z,1.25
2023-01-27T11:48:23.651Z,0.86
2023-01-27T11:49:31.402Z,0.88
2023-01-27T11:50:35.984Z,0.79
2023-01-27T11:51:40.380Z,0.66
2023-01-27T11:52:45.983Z,0.73
2023-01-27T11:54:01.448Z,0.66
2023-01-27T11:55:06.780Z,0.72
2023-01-27T11:56:11.014Z,0.79
2023-01-27T11:57:25.819Z,0.45
2023-01-27T11:58:34.596Z,0.63
2023-01-27T11:59:39.919Z,0.61
2023-01-27T12:00:47.710Z,0.77
2023-01-27T12:02:02.513Z,0.89
2023-01-27T12:03:10.160Z,0.89
2023-01-27T12:04:21.152Z,1.07
2023-01-27T12:05:26.892Z,1.08
2023-01-27T12:06:41.364Z,1.04
2023-01-27T12:07:50.372Z,1.03
2023-01-27T12:08:53.386Z,1.05
2023-01-27T12:09:56.610Z,0.95
2023-01-27T12:11:01.234Z,0.83
2023-01-27T12:12:07.445Z,0.84
2023-01-27T12:13:18.272Z,0.92
2023-01-27T12:14:23.444Z,0.92
2023-01-27T12:15:28.466Z,0.98
2023-01-27T12:16:36.655Z,1.08
2023-01-27T12:17:42.976Z,1.23
2023-01-27T12:18:50.874Z,1.18
2023-01-27T12:19:58.817Z,1.21
2023-01-27T12:21:04.002Z,1.25
2023-01-27T12:22:09.603Z,1.01
2023-01-27T12:23:17.929Z,1.18
2023-01-27T12:24:35.619Z,1.20
2023-01-27T12:25:41.529Z,1.08
2023-01-27T12:26:45.568Z,1.23
2023-01-27T12:27:50.282Z,1.31
2023-01-27T12:28:54.558Z,1.26
2023-01-27T12:29:59.835Z,1.24
2023-01-27T12:31:04.993Z,1.39
2023-01-27T12:32:16.012Z,1.43
2023-01-27T12:33:21.420Z,1.44
2023-01-27T12:34:26.909Z,1.32
2023-01-27T12:35:32.179Z,1.37
2023-01-27T12:36:42.490Z,1.31
2023-01-27T12:37:47.443Z,0.91
2023-01-27T12:38:51.264Z,0.89
2023-01-27T12:39:57.697Z,0.97
2023-01-27T12:41:04.031Z,1.08
2023-01-27T12:42:07.313Z,0.94
2023-01-27T12:43:16.223Z,0.98
2023-01-27T12:44:23.375Z,0.82
2023-01-27T12:45:31.623Z,0.78
2023-01-27T12:46:35.694Z,0.58
2023-01-27T12:47:45.002Z,0.81
2023-01-27T12:48:51.094Z,1.01
2023-01-27T12:50:16.349Z,0.82
2023-01-27T12:51:21.305Z,0.97
2023-01-27T12:52:24.612Z,0.97
2023-01-27T12:53:28.427Z,1.03
2023-01-27T12:54:33.400Z,0.97
2023-01-27T12:55:38.567Z,1.03
2023-01-27T12:56:41.661Z,1.06
2023-01-27T12:57:47.120Z,1.05
2023-01-27T12:58:58.496Z,0.86
2023-01-27T13:00:01.263Z,0.69
2023-01-27T13:01:23.044Z,0.69
2023-01-27T13:02:27.386Z,0.91
2023-01-27T13:03:31.253Z,1.00
2023-01-27T13:04:37.150Z,1.12
2023-01-27T13:05:45.971Z,1.03
2023-01-27T13:06:56.763Z,0.88
2023-01-27T13:08:01.767Z,0.75
2023-01-27T13:09:05.117Z,0.84
2023-01-27T13:10:11.910Z,0.48
2023-01-27T13:11:16.545Z,0.61
2023-01-27T13:12:30.584Z,0.48
2023-01-27T13:13:34.820Z,0.32
2023-01-27T13:14:41.095Z,0.37
2023-01-27T13:15:46.493Z,0.41
2023-01-27T13:16:58.729Z,0.62
2023-01-27T13:18:03.150Z,0.67
2023-01-27T13:19:11.173Z,0.74
2023-01-27T13:20:35.197Z,0.71
2023-01-27T13:21:40.694Z,0.74
2023-01-27T13:22:46.087Z,0.85
2023-01-27T13:23:50.005Z,0.81
2023-01-27T13:24:56.049Z,0.46
2023-01-27T13:26:01.001Z,0.44
2023-01-27T13:27:05.541Z,0.46
2023-01-27T13:28:10.831Z,0.53
2023-01-27T13:29:17.155Z,0.49
2023-01-27T13:30:22.539Z,0.49
2023-01-27T13:31:43.588Z,0.23
2023-01-27T13:32:50.636Z,0.25
2023-01-27T13:33:55.829Z,0.33
2023-01-27T13:35:04.133Z,0.46
2023-01-27T13:36:15.472Z,0.51
2023-01-27T13:37:31.620Z,0.45
2023-01-27T13:38:44.102Z,0.38
2023-01-27T13:39:51.158Z,0.39
2023-01-27T13:40:59.185Z,0.33
2023-01-27T13:42:08.229Z,0.11
2023-01-27T13:43:25.373Z,0.08
2023-01-27T13:44:29.515Z,-0.12
2023-01-27T13:45:42.213Z,-0.13
2023-01-27T13:46:45.713Z,-0.07
2023-01-27T13:47:52.252Z,0.01
2023-01-27T13:48:57.573Z,0.24
2023-01-27T13:50:02.716Z,0.24
2023-01-27T13:51:09.349Z,0.29
2023-01-27T13:52:14.756Z,0.27
2023-01-27T13:53:18.958Z,0.27
2023-01-27T13:54:25.081Z,0.15
2023-01-27T13:55:47.027Z,0.11
2023-01-27T13:56:57.260Z,-0.11
2023-01-27T13:58:03.297Z,-0.07
2023-01-27T13:59:08.671Z,-0.06
2023-01-27T14:00:13.575Z,-0.05
2023-01-27T14:01:31.169Z,-0.01
2023-01-27T14:02:46.845Z,0.00
2023-01-27T14:04:02.182Z,0.04
2023-01-27T14:05:09.971Z,0.11
2023-01-27T14:07:36.919Z,-0.01
2023-01-27T14:08:41.971Z,-0.24
2023-01-27T14:09:57.807Z,-0.27
2023-01-27T14:11:07.579Z,-0.30
2023-01-27T14:12:13.783Z,-0.22
2023-01-27T14:13:22.108Z,-0.20
2023-01-27T14:14:56.094Z,-0.15
2023-01-27T14:15:55.695Z,-0.19
2023-01-27T14:17:03.655Z,-0.04
2023-01-27T14:18:09.464Z,-0.05
2023-01-27T14:19:16.181Z,-0.04
2023-01-27T14:20:21.590Z,-0.14
2023-01-27T14:21:39.531Z,-0.26
2023-01-27T14:22:45.064Z,-0.30
2023-01-27T14:23:51.982Z,-0.39
2023-01-27T14:25:03.500Z,-0.42
2023-01-27T14:26:10.347Z,-0.48
2023-01-27T14:27:15.519Z,-0.46
2023-01-27T14:28:28.977Z,-0.44
2023-01-27T14:29:34.433Z,-0.36
2023-01-27T14:30:41.440Z,-0.37
2023-01-27T14:31:49.826Z,-0.30
2023-01-27T14:33:02.284Z,-0.36
2023-01-27T14:34:16.342Z,-0.57
2023-01-27T14:35:21.868Z,-0.52
2023-01-27T14:36:30.134Z,-0.47
2023-01-27T14:37:35.527Z,-0.34
2023-01-27T14:38:55.844Z,-0.40
2023-01-27T14:40:16.633Z,-0.51
2023-01-27T14:41:28.445Z,-0.40
2023-01-27T14:42:36.545Z,-0.34
2023-01-27T14:43:43.813Z,-0.43
2023-01-27T14:45:06.641Z,-0.46
2023-01-27T14:46:11.742Z,-0.47
2023-01-27T14:47:26.181Z,-0.17
2023-01-27T14:48:31.465Z,-0.18
2023-01-27T14:49:43.315Z,-0.04
2023-01-27T14:50:53.119Z,0.08
2023-01-27T14:52:06.996Z,0.18
2023-01-27T14:53:28.152Z,0.12
2023-01-27T14:54:36.409Z,0.19
2023-01-27T14:55:52.863Z,0.10
2023-01-27T14:57:05.985Z,0.03
2023-01-27T14:58:16.993Z,0.09
2023-01-27T14:59:22.183Z,0.05
2023-01-27T15:00:34.940Z,0.03
2023-01-27T15:01:43.620Z,0.05
2023-01-27T15:03:05.376Z,0.10
2023-01-27T15:04:13.385Z,0.12
2023-01-27T15:05:17.605Z,0.04
2023-01-27T15:06:24.052Z,0.00
2023-01-27T15:07:46.354Z,-0.03
2023-01-27T15:08:58.727Z,-0.09
2023-01-27T15:10:04.986Z,-0.18
2023-01-27T15:11:20.894Z,-0.26
2023-01-27T15:12:32.071Z,-0.22
2023-01-27T15:13:44.222Z,-0.17
2023-01-27T15:15:05.773Z,-0.10
2023-01-27T15:16:11.179Z,-0.08
2023-01-27T15:17:16.126Z,0.03
2023-01-27T15:18:39.956Z,-0.03
2023-01-27T15:19:46.934Z,-0.01
2023-01-27T15:21:04.035Z,0.04
2023-01-27T15:22:28.135Z,0.07
2023-01-27T15:23:45.497Z,0.23
2023-01-27T15:24:57.506Z,0.27
2023-01-27T15:26:02.819Z,0.21
2023-01-27T15:27:08.140Z,0.33
2023-01-27T15:28:13.634Z,0.18
2023-01-27T15:29:18.841Z,0.21
2023-01-27T15:30:27.009Z,-0.16
2023-01-27T15:31:31.548Z,-0.28
2023-01-27T15:32:39.515Z,-0.23
2023-01-27T15:33:51.110Z,-0.07
2023-01-27T15:34:56.594Z,0.01
2023-01-27T15:36:19.951Z,-0.08
2023-01-27T15:37:24.808Z,-0.23
2023-01-27T15:38:31.222Z,-0.42
2023-01-27T15:39:41.588Z,-0.41
2023-01-27T15:40:55.724Z,-0.38
2023-01-27T15:42:02.953Z,-0.19
2023-01-27T15:43:05.999Z,-0.22
2023-01-27T15:44:27.650Z,-0.33
2023-01-27T15:45:35.468Z,-0.63
2023-01-27T15:46:41.339Z,-0.70
2023-01-27T15:47:43.983Z,-0.75
2023-01-27T15:48:48.221Z,-0.68
2023-01-27T15:50:02.690Z,-0.72
2023-01-27T15:51:08.539Z,-0.74
2023-01-27T15:52:12.930Z,-0.83
2023-01-27T15:53:18.538Z,-0.85
2023-01-27T15:54:24.525Z,-0.75
2023-01-27T15:55:32.433Z,-0.72
2023-01-27T15:56:48.633Z,-0.68
2023-01-27T15:57:54.368Z,-0.68
2023-01-27T15:58:59.348Z,-0.55
2023-01-27T16:00:07.460Z,-0.57
2023-01-27T16:01:35.195Z,-0.43
2023-01-27T16:02:40.698Z,-0.54
2023-01-27T16:03:47.194Z,-0.61
2023-01-27T16:04:54.986Z,-0.71
2023-01-27T16:06:10.328Z,-0.72
2023-01-27T16:07:21.320Z,-0.49
2023-01-27T16:08:25.599Z,-0.48
2023-01-27T16:09:33.880Z,-0.49
